Clear Creek, Nevada
Current Conditions -  °F | °C
As of 5:35 PM on Thursday 18 Dec 2014 (Local Time) from KCXP Reporting Station
Clear Clear  
Wind Chill: 36°   Ceiling: Unl
Heat Index: 41°   Visibility: 10mi
Dew Point: 25°   Wind: 8mph
Humidity: 53%   Direction: 60°ENE
Pressure: 30.11"   Gusts: NA
Location:  39.1386°N, 119.659°W
Report Text: KCXP 190135Z AUTO 06007KT 10SM CLR 05/M04 A3011 RMK AO2
Loading
Personal Weather Stations






























Interactive Weather Map New forecast layout! Learn more

10-Day Weather Forecast

Advertisements
Track Severe Weather on mobile